DAL9252 KLAX-KLAS
Flight info
| Callsign | DAL9252 |
|---|---|
| Flight time | 0h 53m |
| Altitude | 27000 |
| Route | ORCKA5 MISEN RNDRZ4 |
| Aircraft | A320/M-SDE3FGHIRWY/LB1 |
Departure
| Time | 2026-05-04 02:51 |
|---|---|
| Airport | Los Angeles International Airport (KLAX) |
Arrival
| Time | 2026-05-04 03:45 |
|---|---|
| Airport | Harry Reid International Airport (KLAS) |
| Time | Latitude | Longitude | Altitude | Speed | Heading |
|---|---|---|---|---|---|
| 2026-05-04 02:22 | 33.94133 | -118.40386 | 93 ft | 0 kts | 268° |
| 2026-05-04 02:38 | 33.94133 | -118.40379 | 93 ft | 4 kts | 266° |
| 2026-05-04 02:39 | 33.94138 | -118.40349 | 92 ft | 4 kts | 237° |
| 2026-05-04 02:39 | 33.94156 | -118.40332 | 92 ft | 3 kts | 178° |
| 2026-05-04 02:39 | 33.94160 | -118.40332 | 92 ft | 0 kts | 174° |
| 2026-05-04 02:39 | 33.94159 | -118.40332 | 92 ft | 0 kts | 174° |
| 2026-05-04 02:45 | 33.94111 | -118.40325 | 93 ft | 15 kts | 173° |
| 2026-05-04 02:45 | 33.93996 | -118.40306 | 92 ft | 17 kts | 169° |
| 2026-05-04 02:45 | 33.93901 | -118.40290 | 96 ft | 9 kts | 172° |
| 2026-05-04 02:46 | 33.93858 | -118.40245 | 97 ft | 12 kts | 102° |
| 2026-05-04 02:46 | 33.93865 | -118.40129 | 99 ft | 13 kts | 83° |
| 2026-05-04 02:46 | 33.93876 | -118.40020 | 96 ft | 16 kts | 83° |
| 2026-05-04 02:46 | 33.93891 | -118.39876 | 96 ft | 17 kts | 84° |
| 2026-05-04 02:47 | 33.93906 | -118.39737 | 95 ft | 16 kts | 83° |
| 2026-05-04 02:47 | 33.93919 | -118.39597 | 95 ft | 20 kts | 83° |
| 2026-05-04 02:47 | 33.93937 | -118.39421 | 94 ft | 21 kts | 83° |
| 2026-05-04 02:47 | 33.93956 | -118.39251 | 94 ft | 20 kts | 82° |
| 2026-05-04 02:48 | 33.93971 | -118.39094 | 94 ft | 18 kts | 84° |
| 2026-05-04 02:48 | 33.93986 | -118.38943 | 94 ft | 20 kts | 83° |
| 2026-05-04 02:48 | 33.94005 | -118.38757 | 94 ft | 25 kts | 83° |
| 2026-05-04 02:48 | 33.94024 | -118.38563 | 96 ft | 22 kts | 82° |
| 2026-05-04 02:49 | 33.94041 | -118.38408 | 97 ft | 14 kts | 83° |
| 2026-05-04 02:49 | 33.94043 | -118.38378 | 96 ft | 5 kts | 85° |
| 2026-05-04 02:49 | 33.94060 | -118.38228 | 95 ft | 22 kts | 82° |
| 2026-05-04 02:49 | 33.94077 | -118.38061 | 93 ft | 19 kts | 85° |
| 2026-05-04 02:50 | 33.93991 | -118.38014 | 93 ft | 15 kts | 221° |
| 2026-05-04 02:50 | 33.93982 | -118.38044 | 95 ft | 0 kts | 256° |
| 2026-05-04 02:50 | 33.93975 | -118.38089 | 94 ft | 28 kts | 261° |
| 2026-05-04 02:51 | 33.93913 | -118.38702 | 97 ft | 117 kts | 262° |
| 2026-05-04 02:51 | 33.93791 | -118.39938 | 260 ft | 170 kts | 263° |
| 2026-05-04 02:51 | 33.93638 | -118.41466 | 823 ft | 196 kts | 262° |
| 2026-05-04 02:51 | 33.93467 | -118.43151 | 1600 ft | 205 kts | 262° |
| 2026-05-04 02:52 | 33.93266 | -118.44938 | 2158 ft | 227 kts | 261° |
| 2026-05-04 02:52 | 33.92866 | -118.46846 | 2852 ft | 241 kts | 254° |
| 2026-05-04 02:52 | 33.92303 | -118.48765 | 3778 ft | 241 kts | 248° |
| 2026-05-04 02:52 | 33.91668 | -118.50552 | 5110 ft | 226 kts | 246° |
| 2026-05-04 02:53 | 33.91037 | -118.52270 | 6016 ft | 226 kts | 248° |
| 2026-05-04 02:53 | 33.90174 | -118.53845 | 6854 ft | 229 kts | 223° |
| 2026-05-04 02:53 | 33.88771 | -118.54766 | 7666 ft | 236 kts | 195° |
| 2026-05-04 02:53 | 33.87125 | -118.54716 | 8472 ft | 244 kts | 165° |
| 2026-05-04 02:54 | 33.85684 | -118.53617 | 9282 ft | 253 kts | 134° |
| 2026-05-04 02:54 | 33.85072 | -118.52403 | 9798 ft | 261 kts | 112° |
| 2026-05-04 02:54 | 33.84926 | -118.50170 | 10312 ft | 282 kts | 77° |
| 2026-05-04 02:54 | 33.85876 | -118.48089 | 10916 ft | 291 kts | 43° |
| 2026-05-04 02:55 | 33.89572 | -118.45491 | 11600 ft | 331 kts | 23° |
| 2026-05-04 02:55 | 33.91698 | -118.44190 | 11832 ft | 355 kts | 31° |
| 2026-05-04 02:55 | 33.93688 | -118.42331 | 12327 ft | 368 kts | 45° |
| 2026-05-04 02:56 | 33.95301 | -118.39894 | 12905 ft | 376 kts | 60° |
| 2026-05-04 02:56 | 33.96650 | -118.37186 | 13704 ft | 378 kts | 59° |
| 2026-05-04 02:56 | 33.98097 | -118.34510 | 14309 ft | 385 kts | 57° |
| 2026-05-04 02:56 | 33.99631 | -118.31833 | 14860 ft | 392 kts | 55° |
| 2026-05-04 02:57 | 34.01218 | -118.29126 | 15416 ft | 399 kts | 54° |
| 2026-05-04 02:57 | 34.02835 | -118.26379 | 15974 ft | 405 kts | 54° |
| 2026-05-04 02:57 | 34.04467 | -118.23580 | 16575 ft | 410 kts | 54° |
| 2026-05-04 02:57 | 34.06103 | -118.20733 | 17152 ft | 416 kts | 54° |
| 2026-05-04 02:58 | 34.07747 | -118.17834 | 17697 ft | 422 kts | 54° |
| 2026-05-04 02:58 | 34.09408 | -118.14883 | 18242 ft | 427 kts | 54° |
| 2026-05-04 02:58 | 34.11087 | -118.11892 | 18722 ft | 433 kts | 54° |
| 2026-05-04 02:58 | 34.12770 | -118.08902 | 18970 ft | 423 kts | 54° |
| 2026-05-04 02:59 | 34.14381 | -118.06036 | 19777 ft | 402 kts | 54° |
| 2026-05-04 02:59 | 34.15874 | -118.03369 | 21378 ft | 365 kts | 53° |
| 2026-05-04 02:59 | 34.17261 | -118.00889 | 22527 ft | 350 kts | 53° |
| 2026-05-04 02:59 | 34.18650 | -117.98422 | 22853 ft | 362 kts | 53° |
| 2026-05-04 03:00 | 34.20084 | -117.95891 | 23078 ft | 358 kts | 53° |
| 2026-05-04 03:00 | 34.21469 | -117.93447 | 23761 ft | 347 kts | 52° |
| 2026-05-04 03:00 | 34.22851 | -117.91038 | 24245 ft | 352 kts | 51° |
| 2026-05-04 03:00 | 34.24297 | -117.88556 | 24388 ft | 371 kts | 52° |
| 2026-05-04 03:01 | 34.25784 | -117.85916 | 24516 ft | 390 kts | 53° |
| 2026-05-04 03:01 | 34.27328 | -117.83127 | 24628 ft | 408 kts | 53° |
| 2026-05-04 03:01 | 34.28938 | -117.80207 | 24745 ft | 426 kts | 54° |
| 2026-05-04 03:01 | 34.30617 | -117.77162 | 24854 ft | 443 kts | 53° |
| 2026-05-04 03:02 | 34.32364 | -117.74011 | 24967 ft | 459 kts | 54° |
| 2026-05-04 03:02 | 34.34176 | -117.70756 | 25071 ft | 473 kts | 53° |
| 2026-05-04 03:02 | 34.36056 | -117.67418 | 25194 ft | 487 kts | 52° |
| 2026-05-04 03:02 | 34.38025 | -117.64041 | 25399 ft | 494 kts | 51° |
| 2026-05-04 03:03 | 34.40050 | -117.60662 | 25699 ft | 498 kts | 51° |
| 2026-05-04 03:03 | 34.42111 | -117.57271 | 26022 ft | 502 kts | 51° |
| 2026-05-04 03:03 | 34.44188 | -117.53861 | 26377 ft | 504 kts | 51° |
| 2026-05-04 03:03 | 34.46266 | -117.50431 | 26801 ft | 506 kts | 51° |
| 2026-05-04 03:04 | 34.48340 | -117.46980 | 26895 ft | 506 kts | 51° |
| 2026-05-04 03:04 | 34.50389 | -117.43535 | 26956 ft | 503 kts | 51° |
| 2026-05-04 03:04 | 34.52426 | -117.40088 | 26959 ft | 503 kts | 51° |
| 2026-05-04 03:04 | 34.54462 | -117.36643 | 26955 ft | 502 kts | 51° |
| 2026-05-04 03:05 | 34.56491 | -117.33202 | 26961 ft | 502 kts | 51° |
| 2026-05-04 03:05 | 34.58526 | -117.29755 | 26961 ft | 502 kts | 51° |
| 2026-05-04 03:05 | 34.60561 | -117.26315 | 26959 ft | 502 kts | 51° |
| 2026-05-04 03:05 | 34.62596 | -117.22869 | 26941 ft | 502 kts | 51° |
| 2026-05-04 03:06 | 34.64629 | -117.19421 | 26927 ft | 502 kts | 51° |
| 2026-05-04 03:06 | 34.66664 | -117.15973 | 26814 ft | 502 kts | 51° |
| 2026-05-04 03:06 | 34.68698 | -117.12529 | 26837 ft | 501 kts | 52° |
| 2026-05-04 03:06 | 34.70728 | -117.09088 | 26825 ft | 501 kts | 52° |
| 2026-05-04 03:07 | 34.72755 | -117.05646 | 26832 ft | 501 kts | 52° |
| 2026-05-04 03:07 | 34.74780 | -117.02201 | 26830 ft | 501 kts | 52° |
| 2026-05-04 03:07 | 34.76804 | -116.98754 | 26830 ft | 501 kts | 52° |
| 2026-05-04 03:07 | 34.78824 | -116.95308 | 26837 ft | 501 kts | 52° |
| 2026-05-04 03:08 | 34.80845 | -116.91856 | 26842 ft | 501 kts | 52° |
| 2026-05-04 03:08 | 34.82864 | -116.88404 | 26893 ft | 501 kts | 52° |
| 2026-05-04 03:08 | 34.84884 | -116.84944 | 26838 ft | 502 kts | 52° |
| 2026-05-04 03:08 | 34.86908 | -116.81479 | 26852 ft | 503 kts | 52° |
| 2026-05-04 03:09 | 34.88937 | -116.78007 | 26851 ft | 503 kts | 52° |
| 2026-05-04 03:09 | 34.90963 | -116.74538 | 26850 ft | 503 kts | 52° |
| 2026-05-04 03:09 | 34.92988 | -116.71059 | 26848 ft | 503 kts | 52° |
| 2026-05-04 03:09 | 34.94991 | -116.67566 | 26839 ft | 503 kts | 53° |
| 2026-05-04 03:10 | 34.96975 | -116.64048 | 26828 ft | 503 kts | 53° |
| 2026-05-04 03:10 | 34.98945 | -116.60519 | 26823 ft | 503 kts | 53° |
| 2026-05-04 03:10 | 35.00906 | -116.56999 | 26811 ft | 497 kts | 53° |
| 2026-05-04 03:10 | 35.02820 | -116.53573 | 26712 ft | 481 kts | 53° |
| 2026-05-04 03:11 | 35.04687 | -116.50244 | 26525 ft | 470 kts | 53° |
| 2026-05-04 03:11 | 35.06524 | -116.46979 | 26528 ft | 466 kts | 53° |
| 2026-05-04 03:11 | 35.08360 | -116.43720 | 26600 ft | 466 kts | 53° |
| 2026-05-04 03:11 | 35.10242 | -116.40502 | 26687 ft | 466 kts | 48° |
| 2026-05-04 03:12 | 35.12384 | -116.37564 | 26308 ft | 461 kts | 43° |
| 2026-05-04 03:12 | 35.14578 | -116.34728 | 25867 ft | 458 kts | 43° |
| 2026-05-04 03:12 | 35.16764 | -116.31917 | 25436 ft | 455 kts | 43° |
| 2026-05-04 03:12 | 35.18914 | -116.29155 | 24996 ft | 453 kts | 43° |
| 2026-05-04 03:13 | 35.21081 | -116.26363 | 24528 ft | 452 kts | 43° |
| 2026-05-04 03:13 | 35.23238 | -116.23572 | 24037 ft | 451 kts | 44° |
| 2026-05-04 03:13 | 35.25365 | -116.20745 | 23567 ft | 451 kts | 45° |
| 2026-05-04 03:13 | 35.27456 | -116.17892 | 23031 ft | 451 kts | 45° |
| 2026-05-04 03:14 | 35.29522 | -116.15027 | 22541 ft | 447 kts | 46° |
| 2026-05-04 03:14 | 35.31564 | -116.12179 | 22067 ft | 444 kts | 46° |
| 2026-05-04 03:14 | 35.33598 | -116.09348 | 21582 ft | 441 kts | 46° |
| 2026-05-04 03:14 | 35.35627 | -116.06539 | 21103 ft | 439 kts | 46° |
| 2026-05-04 03:15 | 35.37653 | -116.03753 | 20620 ft | 437 kts | 46° |
| 2026-05-04 03:15 | 35.39668 | -116.00989 | 20257 ft | 432 kts | 46° |
| 2026-05-04 03:15 | 35.41659 | -115.98259 | 19759 ft | 426 kts | 47° |
| 2026-05-04 03:15 | 35.43608 | -115.95580 | 19132 ft | 417 kts | 47° |
| 2026-05-04 03:16 | 35.45505 | -115.92964 | 18683 ft | 402 kts | 48° |
| 2026-05-04 03:16 | 35.47318 | -115.90460 | 18344 ft | 385 kts | 48° |
| 2026-05-04 03:16 | 35.49063 | -115.88046 | 17920 ft | 373 kts | 49° |
| 2026-05-04 03:16 | 35.50782 | -115.85670 | 17501 ft | 371 kts | 49° |
| 2026-05-04 03:17 | 35.52481 | -115.83320 | 17258 ft | 363 kts | 49° |
| 2026-05-04 03:17 | 35.54144 | -115.81016 | 16933 ft | 359 kts | 49° |
| 2026-05-04 03:17 | 35.55792 | -115.78730 | 16549 ft | 357 kts | 49° |
| 2026-05-04 03:17 | 35.57431 | -115.76456 | 16169 ft | 355 kts | 50° |
| 2026-05-04 03:18 | 35.59054 | -115.74205 | 15909 ft | 349 kts | 50° |
| 2026-05-04 03:18 | 35.60660 | -115.71997 | 15667 ft | 345 kts | 49° |
| 2026-05-04 03:18 | 35.62265 | -115.69824 | 15418 ft | 342 kts | 49° |
| 2026-05-04 03:18 | 35.63865 | -115.67672 | 15176 ft | 340 kts | 49° |
| 2026-05-04 03:19 | 35.65458 | -115.65532 | 14935 ft | 339 kts | 50° |
| 2026-05-04 03:19 | 35.67040 | -115.63401 | 14681 ft | 335 kts | 50° |
| 2026-05-04 03:19 | 35.68602 | -115.61295 | 14447 ft | 332 kts | 50° |
| 2026-05-04 03:19 | 35.70156 | -115.59199 | 14211 ft | 330 kts | 50° |
| 2026-05-04 03:20 | 35.71698 | -115.57122 | 13977 ft | 328 kts | 49° |
| 2026-05-04 03:20 | 35.73402 | -115.55257 | 13745 ft | 329 kts | 37° |
| 2026-05-04 03:20 | 35.75362 | -115.53817 | 13728 ft | 329 kts | 31° |
| 2026-05-04 03:20 | 35.77356 | -115.52428 | 13728 ft | 330 kts | 31° |
| 2026-05-04 03:21 | 35.79350 | -115.51028 | 13522 ft | 329 kts | 32° |
| 2026-05-04 03:21 | 35.81334 | -115.49632 | 13259 ft | 327 kts | 32° |
| 2026-05-04 03:21 | 35.83310 | -115.48241 | 13066 ft | 327 kts | 31° |
| 2026-05-04 03:21 | 35.85283 | -115.46852 | 13047 ft | 327 kts | 31° |
| 2026-05-04 03:22 | 35.87260 | -115.45459 | 13056 ft | 327 kts | 32° |
| 2026-05-04 03:22 | 35.89241 | -115.44065 | 13056 ft | 328 kts | 32° |
| 2026-05-04 03:22 | 35.91221 | -115.42673 | 13042 ft | 328 kts | 31° |
| 2026-05-04 03:22 | 35.93224 | -115.41270 | 12620 ft | 331 kts | 31° |
| 2026-05-04 03:23 | 35.95223 | -115.39878 | 12210 ft | 330 kts | 31° |
| 2026-05-04 03:23 | 35.97215 | -115.38492 | 11866 ft | 327 kts | 31° |
| 2026-05-04 03:23 | 35.99099 | -115.36930 | 11437 ft | 325 kts | 46° |
| 2026-05-04 03:23 | 36.00490 | -115.34780 | 11074 ft | 319 kts | 65° |
| 2026-05-04 03:24 | 36.01242 | -115.32256 | 10762 ft | 309 kts | 83° |
| 2026-05-04 03:24 | 36.01350 | -115.29665 | 10511 ft | 299 kts | 98° |
| 2026-05-04 03:24 | 36.01216 | -115.27104 | 10250 ft | 299 kts | 98° |
| 2026-05-04 03:24 | 36.01089 | -115.24544 | 9990 ft | 298 kts | 97° |
| 2026-05-04 03:25 | 36.00963 | -115.21990 | 9720 ft | 297 kts | 98° |
| 2026-05-04 03:25 | 36.00837 | -115.19445 | 9452 ft | 296 kts | 98° |
| 2026-05-04 03:25 | 36.00714 | -115.16965 | 9350 ft | 283 kts | 98° |
| 2026-05-04 03:25 | 36.00598 | -115.14584 | 9236 ft | 273 kts | 98° |
| 2026-05-04 03:26 | 36.00486 | -115.12291 | 9118 ft | 262 kts | 98° |
| 2026-05-04 03:26 | 36.00374 | -115.10087 | 8997 ft | 252 kts | 98° |
| 2026-05-04 03:26 | 36.00261 | -115.07939 | 8740 ft | 249 kts | 98° |
| 2026-05-04 03:26 | 36.00150 | -115.05822 | 8507 ft | 244 kts | 99° |
| 2026-05-04 03:27 | 36.00045 | -115.03750 | 8288 ft | 239 kts | 98° |
| 2026-05-04 03:27 | 35.99943 | -115.01714 | 8067 ft | 236 kts | 98° |
| 2026-05-04 03:27 | 35.99877 | -114.99714 | 7761 ft | 232 kts | 97° |
| 2026-05-04 03:27 | 35.99859 | -114.97721 | 7407 ft | 232 kts | 96° |
| 2026-05-04 03:28 | 35.99855 | -114.95759 | 7099 ft | 232 kts | 96° |
| 2026-05-04 03:28 | 35.99935 | -114.93760 | 6788 ft | 237 kts | 80° |
| 2026-05-04 03:28 | 36.00705 | -114.91949 | 6531 ft | 242 kts | 52° |
| 2026-05-04 03:28 | 36.02035 | -114.90678 | 6173 ft | 244 kts | 30° |
| 2026-05-04 03:29 | 36.03611 | -114.89958 | 5831 ft | 240 kts | 9° |
| 2026-05-04 03:29 | 36.05243 | -114.89891 | 5534 ft | 231 kts | 347° |
| 2026-05-04 03:29 | 36.06742 | -114.90476 | 5254 ft | 222 kts | 326° |
| 2026-05-04 03:29 | 36.07933 | -114.91580 | 4974 ft | 207 kts | 305° |
| 2026-05-04 03:30 | 36.08725 | -114.92967 | 4784 ft | 189 kts | 287° |
| 2026-05-04 03:30 | 36.09127 | -114.94426 | 4615 ft | 169 kts | 272° |
| 2026-05-04 03:30 | 36.09210 | -114.95772 | 4469 ft | 148 kts | 258° |
| 2026-05-04 03:30 | 36.09061 | -114.96977 | 4338 ft | 138 kts | 245° |
| 2026-05-04 03:31 | 36.08709 | -114.98055 | 4227 ft | 134 kts | 233° |
| 2026-05-04 03:31 | 36.08177 | -114.98966 | 4147 ft | 129 kts | 221° |
| 2026-05-04 03:31 | 36.07498 | -114.99670 | 4087 ft | 126 kts | 211° |
| 2026-05-04 03:31 | 36.06753 | -115.00240 | 3961 ft | 126 kts | 209° |
| 2026-05-04 03:32 | 36.06096 | -115.00972 | 3869 ft | 132 kts | 236° |
| 2026-05-04 03:32 | 36.05876 | -115.02075 | 3979 ft | 136 kts | 266° |
| 2026-05-04 03:32 | 36.05984 | -115.03277 | 4019 ft | 154 kts | 276° |
| 2026-05-04 03:32 | 36.06267 | -115.04665 | 4267 ft | 175 kts | 280° |
| 2026-05-04 03:33 | 36.06471 | -115.06124 | 4838 ft | 173 kts | 272° |
| 2026-05-04 03:33 | 36.06620 | -115.07694 | 4989 ft | 197 kts | 271° |
| 2026-05-04 03:33 | 36.06779 | -115.09523 | 4959 ft | 231 kts | 272° |
| 2026-05-04 03:33 | 36.06933 | -115.11634 | 4998 ft | 261 kts | 271° |
| 2026-05-04 03:34 | 36.06788 | -115.13933 | 5002 ft | 269 kts | 250° |
| 2026-05-04 03:34 | 36.05840 | -115.15832 | 5000 ft | 249 kts | 223° |
| 2026-05-04 03:34 | 36.04425 | -115.16760 | 4998 ft | 219 kts | 197° |
| 2026-05-04 03:34 | 36.03012 | -115.17002 | 4965 ft | 194 kts | 184° |
| 2026-05-04 03:35 | 36.01777 | -115.16504 | 5062 ft | 192 kts | 146° |
| 2026-05-04 03:35 | 36.01052 | -115.15114 | 5074 ft | 200 kts | 107° |
| 2026-05-04 03:35 | 36.00949 | -115.13388 | 5063 ft | 203 kts | 90° |
| 2026-05-04 03:35 | 36.01130 | -115.11661 | 5062 ft | 203 kts | 83° |
| 2026-05-04 03:36 | 36.01414 | -115.09948 | 5059 ft | 204 kts | 81° |
| 2026-05-04 03:36 | 36.01705 | -115.08235 | 5056 ft | 204 kts | 81° |
| 2026-05-04 03:36 | 36.01989 | -115.06527 | 5051 ft | 202 kts | 81° |
| 2026-05-04 03:36 | 36.02281 | -115.04819 | 5051 ft | 204 kts | 81° |
| 2026-05-04 03:37 | 36.02588 | -115.03104 | 5055 ft | 204 kts | 80° |
| 2026-05-04 03:37 | 36.02885 | -115.01399 | 5045 ft | 202 kts | 81° |
| 2026-05-04 03:37 | 36.03203 | -114.99716 | 5037 ft | 201 kts | 82° |
| 2026-05-04 03:37 | 36.03495 | -114.98037 | 5010 ft | 198 kts | 89° |
| 2026-05-04 03:38 | 36.03673 | -114.96364 | 5014 ft | 195 kts | 91° |
| 2026-05-04 03:38 | 36.03831 | -114.94707 | 5011 ft | 194 kts | 91° |
| 2026-05-04 03:38 | 36.03933 | -114.93612 | 5011 ft | 194 kts | 91° |
| 2026-05-04 03:38 | 36.04122 | -114.91955 | 5012 ft | 199 kts | 82° |
| 2026-05-04 03:39 | 36.04864 | -114.90489 | 5019 ft | 209 kts | 40° |
| 2026-05-04 03:39 | 36.06195 | -114.89795 | 5006 ft | 210 kts | 7° |
| 2026-05-04 03:39 | 36.07634 | -114.89723 | 4993 ft | 204 kts | 340° |
| 2026-05-04 03:39 | 36.08701 | -114.90661 | 4990 ft | 183 kts | 288° |
| 2026-05-04 03:40 | 36.08779 | -114.92071 | 4986 ft | 160 kts | 238° |
| 2026-05-04 03:40 | 36.08166 | -114.93198 | 4903 ft | 159 kts | 234° |
| 2026-05-04 03:40 | 36.07708 | -114.94452 | 4772 ft | 163 kts | 247° |
| 2026-05-04 03:40 | 36.07498 | -114.95835 | 4573 ft | 160 kts | 255° |
| 2026-05-04 03:41 | 36.07372 | -114.97167 | 4387 ft | 153 kts | 257° |
| 2026-05-04 03:41 | 36.07373 | -114.98490 | 4201 ft | 153 kts | 262° |
| 2026-05-04 03:41 | 36.07392 | -114.99769 | 4003 ft | 144 kts | 262° |
| 2026-05-04 03:41 | 36.07411 | -115.00990 | 3817 ft | 140 kts | 264° |
| 2026-05-04 03:42 | 36.07377 | -115.02145 | 3625 ft | 131 kts | 263° |
| 2026-05-04 03:42 | 36.07287 | -115.03256 | 3436 ft | 129 kts | 262° |
| 2026-05-04 03:42 | 36.07245 | -115.04377 | 3311 ft | 132 kts | 269° |
| 2026-05-04 03:42 | 36.07339 | -115.05498 | 3237 ft | 131 kts | 274° |
| 2026-05-04 03:43 | 36.07437 | -115.06622 | 3051 ft | 131 kts | 267° |
| 2026-05-04 03:43 | 36.07429 | -115.07754 | 2965 ft | 134 kts | 260° |
| 2026-05-04 03:43 | 36.07383 | -115.08902 | 2692 ft | 138 kts | 266° |
| 2026-05-04 03:43 | 36.07374 | -115.10103 | 2571 ft | 136 kts | 263° |
| 2026-05-04 03:44 | 36.07376 | -115.11228 | 2410 ft | 126 kts | 260° |
| 2026-05-04 03:44 | 36.07365 | -115.12295 | 2139 ft | 127 kts | 264° |
| 2026-05-04 03:44 | 36.07373 | -115.13366 | 2074 ft | 116 kts | 262° |
| 2026-05-04 03:44 | 36.07365 | -115.14188 | 2087 ft | 72 kts | 270° |
| 2026-05-04 03:45 | 36.07367 | -115.14693 | 2092 ft | 47 kts | 271° |
| 2026-05-04 03:45 | 36.07429 | -115.14931 | 2097 ft | 16 kts | 284° |
| 2026-05-04 03:45 | 36.07444 | -115.14990 | 2098 ft | 0 kts | 296° |
| 2026-05-04 03:46 | 36.07476 | -115.15059 | 2099 ft | 11 kts | 304° |
| 2026-05-04 03:46 | 36.07517 | -115.15116 | 2102 ft | 6 kts | 319° |
| 2026-05-04 03:47 | 36.07533 | -115.15131 | 2103 ft | 0 kts | 327° |
| 2026-05-04 03:47 | 36.07554 | -115.15146 | 2106 ft | 8 kts | 329° |
| 2026-05-04 03:48 | 36.07589 | -115.15169 | 2108 ft | 8 kts | 334° |
| 2026-05-04 03:48 | 36.07698 | -115.15232 | 2109 ft | 19 kts | 335° |
| 2026-05-04 03:48 | 36.07820 | -115.15302 | 2101 ft | 19 kts | 338° |
| 2026-05-04 03:48 | 36.07882 | -115.15247 | 2099 ft | 12 kts | 68° |
| 2026-05-04 03:49 | 36.07977 | -115.15201 | 2098 ft | 27 kts | 359° |
| 2026-05-04 03:49 | 36.08163 | -115.15253 | 2097 ft | 20 kts | 320° |
| 2026-05-04 03:49 | 36.08228 | -115.15274 | 2097 ft | 0 kts | 358° |